createdAt,value
2018-03-04T00:00:12.431Z,52.80
2018-03-04T00:02:40.638Z,55.07
2018-03-04T00:05:08.422Z,59.23
2018-03-04T00:07:36.739Z,58.80
2018-03-04T00:10:06.351Z,56.43
2018-03-04T00:12:34.820Z,61.27
2018-03-04T00:15:02.388Z,57.83
2018-03-04T00:17:30.008Z,54.17
2018-03-04T00:19:59.094Z,56.13
2018-03-04T00:22:40.196Z,55.08
2018-03-04T00:25:09.281Z,54.85
2018-03-04T00:27:37.929Z,51.03
2018-03-04T00:30:06.618Z,51.37
2018-03-04T00:32:36.375Z,52.43
2018-03-04T00:35:04.937Z,54.27
2018-03-04T00:37:33.570Z,54.97
2018-03-04T00:40:02.929Z,55.00
2018-03-04T00:42:34.004Z,52.40
2018-03-04T00:45:03.228Z,53.17
2018-03-04T00:47:31.154Z,58.10
2018-03-04T00:50:01.462Z,57.17
2018-03-04T00:52:29.539Z,56.10
2018-03-04T00:54:58.668Z,56.83
2018-03-04T00:57:28.153Z,57.70
2018-03-04T00:59:56.724Z,58.47
2018-03-04T01:02:26.315Z,61.30
2018-03-04T01:04:55.710Z,57.80
2018-03-04T01:07:24.143Z,59.10
2018-03-04T01:09:51.814Z,58.58
2018-03-04T01:12:19.392Z,53.20
2018-03-04T01:14:46.975Z,56.30
2018-03-04T01:17:15.755Z,54.08
2018-03-04T01:19:44.753Z,57.27
2018-03-04T01:22:12.343Z,57.90
2018-03-04T01:24:39.908Z,55.27
2018-03-04T01:27:09.462Z,54.27
2018-03-04T01:29:38.825Z,57.10
2018-03-04T01:32:06.412Z,64.67
2018-03-04T01:34:36.527Z,78.30
2018-03-04T01:37:04.145Z,62.50
2018-03-04T01:39:34.006Z,56.87
2018-03-04T01:42:04.523Z,54.35
2018-03-04T01:44:32.665Z,53.80
2018-03-04T01:47:01.300Z,51.37
2018-03-04T01:49:30.214Z,54.25
2018-03-04T01:51:59.429Z,54.23
2018-03-04T01:54:29.263Z,52.30
2018-03-04T01:56:57.637Z,53.17
2018-03-04T01:59:26.172Z,53.20
2018-03-04T02:01:55.253Z,54.50
2018-03-04T02:04:24.087Z,52.17
2018-03-04T02:06:51.664Z,54.40
2018-03-04T02:09:21.576Z,53.25
2018-03-04T02:11:49.191Z,52.33
2018-03-04T02:14:17.627Z,53.90
2018-03-04T02:16:46.729Z,51.30
2018-03-04T02:19:14.322Z,54.10
2018-03-04T02:21:42.825Z,52.40
2018-03-04T02:24:11.718Z,52.20
2018-03-04T02:26:44.925Z,53.63
2018-03-04T02:29:14.323Z,53.77
2018-03-04T02:31:43.423Z,52.50
2018-03-04T02:34:11.913Z,51.05
2018-03-04T02:36:40.002Z,55.80
2018-03-04T02:39:08.702Z,57.07
2018-03-04T02:41:37.308Z,50.67
2018-03-04T02:44:07.028Z,65.28
2018-03-04T02:46:37.222Z,61.72
2018-03-04T02:49:05.460Z,58.37
2018-03-04T02:51:33.796Z,55.70
2018-03-04T02:54:01.840Z,58.90
2018-03-04T02:56:29.789Z,54.60
2018-03-04T02:58:57.558Z,53.70
2018-03-04T03:01:27.733Z,56.10
2018-03-04T03:03:57.458Z,53.38
2018-03-04T03:06:29.803Z,66.90
2018-03-04T03:09:00.189Z,58.93
2018-03-04T03:11:31.320Z,55.42
2018-03-04T03:14:01.515Z,53.60
2018-03-04T03:16:32.023Z,57.60
2018-03-04T03:19:02.231Z,57.07
2018-03-04T03:21:33.351Z,56.10
2018-03-04T03:24:03.170Z,54.30
2018-03-04T03:26:32.408Z,55.92
2018-03-04T03:29:02.439Z,56.67
2018-03-04T03:31:31.703Z,58.80
2018-03-04T03:34:05.880Z,56.20
2018-03-04T03:36:36.266Z,58.10
2018-03-04T03:39:07.201Z,60.05
2018-03-04T03:41:37.709Z,60.28
2018-03-04T03:44:05.544Z,62.93
2018-03-04T03:46:38.066Z,61.93
2018-03-04T03:49:08.275Z,59.10
2018-03-04T03:51:35.963Z,57.47
2018-03-04T03:54:03.912Z,60.15
2018-03-04T03:56:34.278Z,57.97
2018-03-04T03:59:02.651Z,58.90
2018-03-04T04:01:30.523Z,61.00
2018-03-04T04:04:01.298Z,62.73
2018-03-04T04:06:31.539Z,62.62
2018-03-04T04:09:04.781Z,63.00
2018-03-04T04:11:33.973Z,61.63
2018-03-04T04:14:01.555Z,66.07
2018-03-04T04:16:29.146Z,65.10
2018-03-04T04:18:56.720Z,63.50
2018-03-04T04:21:30.121Z,65.53
2018-03-04T04:23:59.397Z,58.90
2018-03-04T04:26:28.448Z,60.50
2018-03-04T04:28:57.304Z,61.67
2018-03-04T04:31:26.718Z,62.20
2018-03-04T04:33:56.073Z,59.80
2018-03-04T04:36:25.197Z,62.53
2018-03-04T04:38:57.036Z,60.70
2018-03-04T04:41:27.158Z,64.25
2018-03-04T04:43:56.935Z,64.37
2018-03-04T04:46:26.257Z,62.70
2018-03-04T04:48:55.853Z,65.67
2018-03-04T04:51:26.433Z,59.20
2018-03-04T04:53:54.951Z,60.07
2018-03-04T04:56:25.720Z,61.42
2018-03-04T04:58:55.244Z,60.73
2018-03-04T05:01:23.805Z,56.60
2018-03-04T05:03:53.233Z,58.80
2018-03-04T05:06:21.849Z,61.67
2018-03-04T05:08:55.869Z,56.50
2018-03-04T05:11:24.331Z,59.53
2018-03-04T05:13:53.277Z,60.53
2018-03-04T05:16:24.004Z,57.00
2018-03-04T05:18:52.589Z,61.90
2018-03-04T05:21:21.896Z,60.10
2018-03-04T05:23:51.139Z,57.30
2018-03-04T05:26:22.554Z,59.60
2018-03-04T05:28:50.208Z,56.80
2018-03-04T05:31:17.828Z,58.30
2018-03-04T05:33:48.200Z,58.73
2018-03-04T05:36:18.493Z,56.80
2018-03-04T05:38:46.154Z,55.92
2018-03-04T05:41:13.765Z,59.10
2018-03-04T05:43:41.761Z,58.57
2018-03-04T05:46:10.054Z,60.30
2018-03-04T05:48:38.781Z,60.27
2018-03-04T05:51:07.155Z,58.97
2018-03-04T05:53:37.172Z,58.50
2018-03-04T05:56:07.003Z,55.70
2018-03-04T05:58:36.434Z,58.93
2018-03-04T06:01:05.280Z,59.53
2018-03-04T06:03:32.852Z,59.20
2018-03-04T06:06:00.457Z,58.13
2018-03-04T06:08:28.082Z,59.17
2018-03-04T06:10:58.161Z,56.10
2018-03-04T06:13:26.416Z,58.85
2018-03-04T06:15:55.057Z,58.10
2018-03-04T06:18:23.852Z,57.97
2018-03-04T06:20:53.536Z,59.50
2018-03-04T06:23:21.053Z,59.87
2018-03-04T06:25:50.248Z,59.87
2018-03-04T06:28:18.166Z,58.95
2018-03-04T06:30:45.748Z,57.20
2018-03-04T06:33:15.285Z,60.20
2018-03-04T06:35:43.576Z,57.10
2018-03-04T06:38:12.073Z,59.20
2018-03-04T06:40:39.644Z,62.07
2018-03-04T06:43:07.198Z,57.77
2018-03-04T06:45:34.936Z,58.70
2018-03-04T06:48:03.962Z,57.03
2018-03-04T06:50:31.541Z,56.00
2018-03-04T06:52:59.530Z,62.03
2018-03-04T06:55:27.409Z,59.90
2018-03-04T06:57:55.391Z,60.20
2018-03-04T07:00:24.008Z,62.43
2018-03-04T07:02:52.566Z,60.33
2018-03-04T07:05:20.116Z,66.10
2018-03-04T07:07:49.109Z,65.07
2018-03-04T07:10:16.724Z,59.60
2018-03-04T07:12:45.472Z,54.17
2018-03-04T07:15:13.296Z,55.33
2018-03-04T07:17:42.778Z,65.03
2018-03-04T07:20:12.135Z,63.13
2018-03-04T07:22:40.442Z,58.13
2018-03-04T07:25:08.890Z,60.33
2018-03-04T07:27:36.958Z,66.30
2018-03-04T07:30:05.387Z,62.43
2018-03-04T07:32:32.965Z,60.63
2018-03-04T07:35:02.324Z,59.20
2018-03-04T07:37:31.002Z,56.17
2018-03-04T07:39:59.902Z,55.83
2018-03-04T07:42:29.268Z,55.70
2018-03-04T07:44:58.574Z,54.67
2018-03-04T07:47:26.261Z,62.50
2018-03-04T07:49:54.600Z,55.85
2018-03-04T07:52:23.276Z,58.03
2018-03-04T07:54:52.101Z,58.33
2018-03-04T07:57:19.851Z,54.17
2018-03-04T07:59:48.566Z,51.90
2018-03-04T08:02:17.908Z,57.30
2018-03-04T08:04:46.539Z,55.37
2018-03-04T08:07:15.454Z,54.87
2018-03-04T08:09:45.014Z,55.03
2018-03-04T08:12:16.364Z,55.67
2018-03-04T08:14:45.261Z,54.47
2018-03-04T08:17:12.825Z,60.35
2018-03-04T08:19:40.386Z,54.77
2018-03-04T08:22:09.749Z,55.90
2018-03-04T08:24:40.497Z,52.67
2018-03-04T08:27:22.405Z,53.67
2018-03-04T08:29:51.394Z,54.37
2018-03-04T08:32:19.009Z,48.76
2018-03-04T08:34:48.739Z,52.73
2018-03-04T08:37:17.730Z,52.05
2018-03-04T08:39:46.553Z,54.67
2018-03-04T08:42:16.298Z,51.10
2018-03-04T08:44:45.310Z,56.40
2018-03-04T08:47:14.326Z,60.13
2018-03-04T08:49:43.890Z,57.33
2018-03-04T08:52:14.009Z,51.27
2018-03-04T08:54:43.571Z,52.45
2018-03-04T08:57:11.541Z,56.80
2018-03-04T08:59:39.806Z,55.58
2018-03-04T09:02:08.533Z,52.10
2018-03-04T09:04:36.469Z,51.73
2018-03-04T09:07:06.165Z,49.17
2018-03-04T09:09:35.615Z,48.90
2018-03-04T09:12:03.270Z,53.17
2018-03-04T09:14:31.843Z,49.30
2018-03-04T09:17:00.458Z,48.77
2018-03-04T09:19:29.350Z,52.13
2018-03-04T09:21:57.034Z,49.80
2018-03-04T09:24:26.580Z,48.70
2018-03-04T09:26:54.864Z,47.97
2018-03-04T09:29:27.949Z,48.23
2018-03-04T09:31:56.041Z,47.67
2018-03-04T09:34:24.387Z,48.87
2018-03-04T09:36:53.350Z,47.47
2018-03-04T09:39:22.934Z,49.33
2018-03-04T09:41:51.301Z,48.40
2018-03-04T09:44:19.527Z,51.10
2018-03-04T09:46:49.495Z,50.60
2018-03-04T09:49:18.061Z,47.87
2018-03-04T09:51:49.398Z,48.15
2018-03-04T09:54:18.703Z,66.77
2018-03-04T09:56:48.209Z,56.90
2018-03-04T09:59:16.969Z,52.72
2018-03-04T10:01:45.293Z,57.05
2018-03-04T10:04:14.617Z,55.75
2018-03-04T10:06:44.411Z,50.40
2018-03-04T10:09:12.839Z,48.73
2018-03-04T10:11:41.172Z,52.23
2018-03-04T10:14:08.795Z,53.67
2018-03-04T10:16:37.663Z,50.57
2018-03-04T10:19:05.312Z,45.67
2018-03-04T10:21:33.913Z,50.80
2018-03-04T10:24:01.899Z,54.75
2018-03-04T10:26:29.881Z,51.17
2018-03-04T10:28:57.668Z,54.13
2018-03-04T10:31:25.274Z,51.77
2018-03-04T10:33:53.795Z,45.95
2018-03-04T10:36:21.792Z,48.50
2018-03-04T10:38:50.306Z,46.43
2018-03-04T10:41:19.298Z,43.47
2018-03-04T10:43:46.933Z,46.40
2018-03-04T10:46:14.476Z,46.40
2018-03-04T10:48:42.089Z,48.77
2018-03-04T10:51:10.057Z,46.50
2018-03-04T10:53:37.685Z,43.20
2018-03-04T10:56:05.284Z,43.77
2018-03-04T10:58:33.295Z,43.97
2018-03-04T11:01:06.422Z,42.78
2018-03-04T11:03:33.967Z,45.05
2018-03-04T11:06:01.554Z,45.27
2018-03-04T11:08:29.846Z,45.70
2018-03-04T11:10:57.883Z,43.90
2018-03-04T11:13:25.415Z,45.10
2018-03-04T11:15:52.969Z,44.27
2018-03-04T11:18:20.553Z,42.50
2018-03-04T11:20:48.853Z,45.50
2018-03-04T11:23:16.595Z,43.73
2018-03-04T11:25:44.134Z,45.50
2018-03-04T11:28:12.610Z,46.00
2018-03-04T11:30:40.169Z,44.10
2018-03-04T11:33:07.751Z,43.08
2018-03-04T11:35:35.316Z,42.50
2018-03-04T11:38:02.957Z,44.10
2018-03-04T11:40:30.537Z,43.53
2018-03-04T11:42:58.627Z,43.77
2018-03-04T11:48:25.981Z,44.60
2018-03-04T11:50:53.983Z,42.20
2018-03-04T11:53:22.893Z,44.50
2018-03-04T11:55:50.490Z,46.40
2018-03-04T11:58:19.692Z,43.77
2018-03-04T12:00:47.298Z,42.50
2018-03-04T12:03:15.657Z,43.03
2018-03-04T12:05:43.198Z,44.33
2018-03-04T12:08:11.480Z,43.83
2018-03-04T12:10:40.068Z,44.20
2018-03-04T12:13:07.666Z,43.00
2018-03-04T12:15:35.624Z,44.37
2018-03-04T12:18:04.531Z,43.57
2018-03-04T12:20:32.479Z,41.90
2018-03-04T12:23:00.510Z,41.23
2018-03-04T12:25:28.290Z,41.57
2018-03-04T12:27:57.093Z,40.77
2018-03-04T12:30:24.812Z,43.87
2018-03-04T12:32:52.587Z,38.38
2018-03-04T12:35:20.419Z,39.63
2018-03-04T12:37:48.265Z,37.53
2018-03-04T12:40:15.941Z,38.45
2018-03-04T12:42:44.750Z,38.50
2018-03-04T12:45:12.391Z,38.50
2018-03-04T12:47:41.722Z,37.77
2018-03-04T12:50:09.533Z,38.53
2018-03-04T12:52:37.516Z,38.10
2018-03-04T12:55:05.484Z,36.77
2018-03-04T12:57:33.043Z,37.40
2018-03-04T13:00:01.139Z,34.53
2018-03-04T13:02:28.679Z,33.97
2018-03-04T13:04:56.715Z,32.33
2018-03-04T13:07:24.303Z,31.83
2018-03-04T13:09:54.107Z,30.63
2018-03-04T13:12:21.691Z,30.58
2018-03-04T13:14:49.381Z,30.45
2018-03-04T13:17:17.014Z,30.03
2018-03-04T13:19:45.002Z,28.92
2018-03-04T13:22:12.603Z,27.23
2018-03-04T13:24:40.192Z,32.07
2018-03-04T13:27:07.777Z,30.93
2018-03-04T13:29:35.328Z,29.30
2018-03-04T13:32:04.245Z,30.00
2018-03-04T13:34:31.801Z,29.93
2018-03-04T13:37:05.644Z,28.93
2018-03-04T13:39:33.386Z,27.83
2018-03-04T13:42:01.034Z,28.67
2018-03-04T13:44:28.709Z,28.37
2018-03-04T13:46:56.276Z,26.98
2018-03-04T13:49:23.916Z,29.50
2018-03-04T13:51:51.479Z,27.27
2018-03-04T13:54:19.040Z,28.47
2018-03-04T13:56:46.585Z,24.43
2018-03-04T13:59:14.179Z,24.83
2018-03-04T14:01:41.754Z,25.05
2018-03-04T14:04:09.313Z,25.00
2018-03-04T14:06:37.141Z,26.97
2018-03-04T14:09:04.713Z,28.45
2018-03-04T14:11:32.268Z,26.90
2018-03-04T14:13:59.837Z,28.70
2018-03-04T14:16:27.431Z,27.03
2018-03-04T14:18:55.006Z,25.40
2018-03-04T14:21:22.982Z,30.10
2018-03-04T14:23:50.936Z,27.03
2018-03-04T14:26:18.886Z,28.62
2018-03-04T14:28:46.452Z,27.40
2018-03-04T14:31:14.023Z,28.10
2018-03-04T14:33:41.556Z,28.40
2018-03-04T14:36:09.144Z,28.23
2018-03-04T14:38:36.694Z,30.77
2018-03-04T14:41:04.272Z,32.27
2018-03-04T14:43:31.811Z,29.63
2018-03-04T14:46:00.222Z,30.10
2018-03-04T14:48:28.156Z,29.70
2018-03-04T14:50:55.734Z,28.58
2018-03-04T14:53:38.472Z,28.73
2018-03-04T14:56:06.102Z,33.43
2018-03-04T14:58:34.505Z,32.70
2018-03-04T15:01:02.075Z,31.97
2018-03-04T15:03:29.607Z,31.15
2018-03-04T15:05:57.578Z,34.17
2018-03-04T15:08:25.564Z,33.83
2018-03-04T15:10:53.190Z,33.50
2018-03-04T15:13:21.719Z,35.20
2018-03-04T15:15:49.294Z,37.20
2018-03-04T15:18:16.864Z,35.63
2018-03-04T15:20:44.430Z,37.53
2018-03-04T15:23:12.045Z,39.73
2018-03-04T15:25:40.070Z,39.92
2018-03-04T15:28:07.602Z,39.63
2018-03-04T15:30:35.197Z,36.23
2018-03-04T15:33:02.785Z,38.30
2018-03-04T15:35:30.817Z,38.83
2018-03-04T15:37:58.396Z,35.73
2018-03-04T15:40:26.047Z,38.90
2018-03-04T15:42:53.626Z,36.30
2018-03-04T15:45:21.177Z,37.37
2018-03-04T15:47:48.753Z,41.60
2018-03-04T15:50:17.290Z,36.70
2018-03-04T15:52:46.019Z,37.57
2018-03-04T15:55:13.994Z,39.00
2018-03-04T15:57:41.964Z,38.00
2018-03-04T16:00:09.531Z,36.57
2018-03-04T16:02:37.504Z,38.53
2018-03-04T16:05:05.453Z,38.45
2018-03-04T16:07:33.419Z,38.57
2018-03-04T16:10:01.022Z,39.13
2018-03-04T16:12:28.592Z,37.70
2018-03-04T16:14:56.240Z,39.57
2018-03-04T16:17:24.717Z,36.83
2018-03-04T16:19:53.143Z,38.80
2018-03-04T16:22:20.804Z,41.33
2018-03-04T16:24:48.485Z,40.40
2018-03-04T16:27:16.034Z,40.47
2018-03-04T16:29:43.588Z,42.08
2018-03-04T16:32:12.062Z,42.33
2018-03-04T16:34:39.645Z,40.33
2018-03-04T16:37:07.236Z,39.73
2018-03-04T16:39:34.802Z,42.62
2018-03-04T16:42:02.401Z,40.30
2018-03-04T16:44:29.944Z,40.63
2018-03-04T16:46:57.507Z,41.20
2018-03-04T16:49:25.102Z,43.00
2018-03-04T16:51:52.678Z,42.87
2018-03-04T16:54:20.669Z,44.42
2018-03-04T16:56:48.731Z,52.58
2018-03-04T16:59:16.282Z,48.10
2018-03-04T17:01:45.231Z,47.78
2018-03-04T17:04:12.819Z,47.08
2018-03-04T17:06:40.357Z,47.70
2018-03-04T17:09:07.930Z,46.60
2018-03-04T17:11:35.481Z,44.60
2018-03-04T17:14:03.041Z,40.63
2018-03-04T17:16:30.625Z,41.97
2018-03-04T17:18:58.618Z,40.47
2018-03-04T17:21:26.207Z,38.83
2018-03-04T17:23:53.817Z,39.30
2018-03-04T17:26:21.371Z,37.93
2018-03-04T17:28:49.345Z,39.10
2018-03-04T17:31:17.299Z,36.70
2018-03-04T17:33:44.895Z,39.07
2018-03-04T17:36:12.491Z,38.50
2018-03-04T17:38:40.063Z,38.07
2018-03-04T17:41:07.627Z,39.53
2018-03-04T17:43:35.188Z,38.20
2018-03-04T17:46:02.760Z,38.40
2018-03-04T17:48:30.334Z,36.90
2018-03-04T17:50:57.914Z,38.87
2018-03-04T17:53:25.905Z,38.07
2018-03-04T17:55:53.454Z,39.27
2018-03-04T17:58:21.047Z,36.83
2018-03-04T18:00:48.679Z,37.40
2018-03-04T18:03:17.177Z,34.97
2018-03-04T18:05:44.737Z,37.13
2018-03-04T18:08:13.198Z,38.22
2018-03-04T18:10:41.048Z,35.17
2018-03-04T18:13:11.174Z,34.90
2018-03-04T18:15:43.462Z,33.78
2018-03-04T18:18:14.966Z,32.57
2018-03-04T18:20:46.787Z,34.47
2018-03-04T18:23:14.752Z,31.40
2018-03-04T18:25:42.379Z,35.88
2018-03-04T18:28:09.982Z,34.07
2018-03-04T18:33:12.009Z,32.93
2018-03-04T18:35:39.670Z,29.30
2018-03-04T18:38:10.297Z,31.60
2018-03-04T18:40:38.345Z,32.97
2018-03-04T18:43:05.965Z,34.70
2018-03-04T18:45:33.582Z,35.30
2018-03-04T18:48:02.954Z,34.10
2018-03-04T18:50:30.506Z,32.10
2018-03-04T18:52:58.075Z,31.00
2018-03-04T18:55:25.653Z,30.07
2018-03-04T18:57:53.937Z,31.13
2018-03-04T19:00:21.574Z,31.33
2018-03-04T19:02:49.168Z,30.97
2018-03-04T19:05:17.130Z,30.02
2018-03-04T19:07:45.326Z,28.90
2018-03-04T19:10:13.132Z,28.00
2018-03-04T19:12:40.913Z,31.27
2018-03-04T19:15:08.494Z,29.07
2018-03-04T19:17:36.074Z,29.03
2018-03-04T19:20:04.042Z,30.37
2018-03-04T19:22:37.431Z,28.73
2018-03-04T19:25:06.314Z,27.77
2018-03-04T19:27:33.915Z,28.13
2018-03-04T19:30:01.469Z,28.73
2018-03-04T19:32:29.224Z,29.93
2018-03-04T19:34:56.781Z,29.12
2018-03-04T19:37:24.385Z,28.10
2018-03-04T19:39:51.966Z,27.83
2018-03-04T19:42:19.486Z,30.13
2018-03-04T19:44:47.049Z,29.50
2018-03-04T19:47:15.556Z,28.97
2018-03-04T19:49:43.374Z,29.90
2018-03-04T19:52:11.338Z,31.47
2018-03-04T19:54:39.800Z,29.92
2018-03-04T19:57:07.730Z,28.73
2018-03-04T19:59:36.235Z,30.37
2018-03-04T20:02:04.644Z,29.42
2018-03-04T20:04:32.202Z,30.47
2018-03-04T20:07:00.237Z,42.30
2018-03-04T20:09:27.750Z,32.60
2018-03-04T20:11:55.338Z,35.20
2018-03-04T20:14:23.687Z,33.30
2018-03-04T20:16:52.038Z,30.80
2018-03-04T20:19:20.009Z,30.10
2018-03-04T20:21:47.995Z,33.72
2018-03-04T20:24:16.837Z,27.97
2018-03-04T20:26:44.436Z,28.63
2018-03-04T20:29:14.169Z,30.13
2018-03-04T20:31:43.265Z,29.48
2018-03-04T20:34:11.085Z,30.30
2018-03-04T20:36:39.703Z,32.20
2018-03-04T20:39:07.341Z,32.53
2018-03-04T20:41:35.408Z,32.70
2018-03-04T20:44:03.452Z,34.33
2018-03-04T20:46:32.303Z,33.47
2018-03-04T20:48:59.981Z,30.53
2018-03-04T20:51:28.078Z,29.23
2018-03-04T20:53:56.382Z,30.50
2018-03-04T20:56:24.386Z,28.73
2018-03-04T20:58:51.954Z,29.37
2018-03-04T21:01:19.658Z,30.27
2018-03-04T21:03:47.250Z,30.77
2018-03-04T21:06:16.702Z,29.40
2018-03-04T21:08:45.213Z,27.33
2018-03-04T21:11:12.846Z,27.45
2018-03-04T21:13:41.916Z,29.07
2018-03-04T21:16:10.133Z,29.58
2018-03-04T21:18:37.727Z,26.67
2018-03-04T21:21:05.684Z,27.10
2018-03-04T21:23:36.784Z,26.70
2018-03-04T21:26:06.966Z,27.60
2018-03-04T21:28:37.402Z,28.37
2018-03-04T21:31:06.785Z,26.03
2018-03-04T21:36:22.595Z,28.10
2018-03-04T21:38:57.610Z,28.65
2018-03-04T21:41:27.498Z,27.13
2018-03-04T21:43:56.790Z,25.90
2018-03-04T21:46:37.137Z,26.43
2018-03-04T21:49:19.018Z,28.03
2018-03-04T21:51:47.336Z,28.73
2018-03-04T21:54:15.822Z,27.55
2018-03-04T21:56:45.630Z,25.67
2018-03-04T21:59:13.327Z,27.70
2018-03-04T22:01:41.010Z,26.00
2018-03-04T22:04:08.589Z,27.63
2018-03-04T22:06:36.450Z,29.17
2018-03-04T22:09:04.008Z,30.63
2018-03-04T22:11:31.560Z,26.90
2018-03-04T22:13:59.106Z,29.47
2018-03-04T22:16:26.679Z,29.90
2018-03-04T22:19:09.460Z,27.37
2018-03-04T22:21:39.903Z,28.37
2018-03-04T22:24:07.876Z,27.02
2018-03-04T22:26:35.906Z,29.73
2018-03-04T22:29:03.523Z,28.47
2018-03-04T22:31:32.687Z,27.77
2018-03-04T22:34:00.340Z,26.98
2018-03-04T22:36:27.943Z,28.10
2018-03-04T22:38:55.563Z,27.00
2018-03-04T22:41:23.156Z,27.03
2018-03-04T22:43:50.793Z,26.50
2018-03-04T22:46:19.020Z,28.10
2018-03-04T22:48:46.726Z,27.60
2018-03-04T22:51:14.737Z,27.10
2018-03-04T22:53:42.290Z,31.67
2018-03-04T22:56:09.861Z,29.40
2018-03-04T22:58:37.459Z,25.93
2018-03-04T23:01:05.697Z,26.90
2018-03-04T23:03:33.281Z,27.87
2018-03-04T23:06:00.909Z,27.23
2018-03-04T23:08:28.430Z,31.07
2018-03-04T23:10:57.049Z,30.20
2018-03-04T23:13:24.976Z,28.27
2018-03-04T23:15:52.545Z,30.40
2018-03-04T23:18:20.481Z,28.20
2018-03-04T23:20:48.049Z,28.73
2018-03-04T23:23:15.604Z,26.90
2018-03-04T23:25:43.154Z,29.13
2018-03-04T23:28:10.780Z,29.70
2018-03-04T23:30:38.990Z,28.03
2018-03-04T23:33:06.774Z,29.07
2018-03-04T23:35:34.345Z,29.37
2018-03-04T23:38:01.892Z,29.30
2018-03-04T23:40:29.447Z,31.00
2018-03-04T23:42:56.997Z,30.80
2018-03-04T23:45:24.574Z,28.65
2018-03-04T23:47:52.104Z,30.00
2018-03-04T23:50:19.679Z,31.63
2018-03-04T23:52:47.216Z,28.87
2018-03-04T23:55:14.792Z,30.92
2018-03-04T23:57:42.359Z,29.47
